Time;durP1;ratioP1;P1;durP2;ratioP2;P2;SDS_P1;SDS_P2;PMS_P1;PMS_P2;Temp;Humidity;BMP_temperature;BMP_pressure;BME280_temperature;BME280_humidity;BME280_pressure;Samples;Min_cycle;Max_cycle;Signal;HPM_P1;HPM_P2
2022/03/24 00:00:40;;;;;;;41.92;32.20;;;6.60;99.90;;;;;;5037332;28;20049;-56
2022/03/24 00:03:07;;;;;;;41.65;32.33;;;6.60;99.90;;;;;;5049047;28;20052;-57
2022/03/24 00:05:34;;;;;;;37.65;31.67;;;6.50;99.90;;;;;;5033345;28;20539;-57
2022/03/24 00:08:00;;;;;;;36.60;31.08;;;6.50;99.90;;;;;;5037226;28;20419;-57
2022/03/24 00:10:26;;;;;;;38.10;32.83;;;6.50;99.90;;;;;;5035478;28;20041;-57
2022/03/24 00:12:53;;;;;;;37.50;31.45;;;6.50;99.90;;;;;;5036657;28;20049;-57
2022/03/24 00:15:19;;;;;;;39.65;32.38;;;6.40;99.90;;;;;;5033140;28;20132;-57
2022/03/24 00:17:45;;;;;;;40.55;32.05;;;6.50;99.90;;;;;;5037439;28;20120;-56
2022/03/24 00:20:14;;;;;;;38.90;32.00;;;6.40;99.90;;;;;;5034776;28;20049;-57
2022/03/24 00:22:41;;;;;;;37.75;33.65;;;6.30;99.90;;;;;;5038336;28;20053;-56
2022/03/24 00:25:08;;;;;;;38.53;32.00;;;6.30;99.90;;;;;;5017568;28;20160;-57
2022/03/24 00:27:34;;;;;;;40.47;33.03;;;6.30;99.90;;;;;;5037739;28;20134;-56
2022/03/24 00:30:01;;;;;;;38.35;31.25;;;6.30;99.90;;;;;;5037498;28;20041;-56
2022/03/24 00:32:27;;;;;;;37.75;31.13;;;6.20;99.90;;;;;;5035402;28;20095;-57
2022/03/24 00:34:53;;;;;;;40.78;32.53;;;6.10;99.90;;;;;;5038288;28;20519;-57
2022/03/24 00:37:19;;;;;;;39.15;32.33;;;6.10;99.90;;;;;;5034932;28;20103;-54
2022/03/24 00:39:48;;;;;;;38.58;32.10;;;6.10;99.90;;;;;;5039726;28;20048;-56
2022/03/24 00:42:15;;;;;;;40.15;32.45;;;6.10;99.90;;;;;;5020036;28;20049;-56
2022/03/24 00:44:42;;;;;;;38.40;31.38;;;6.10;99.90;;;;;;5020466;28;20040;-54
2022/03/24 00:47:10;;;;;;;38.05;30.25;;;6.00;99.90;;;;;;5037097;28;20410;-54
2022/03/24 00:49:40;;;;;;;40.70;32.38;;;6.00;99.90;;;;;;5035839;28;20045;-56
2022/03/24 00:52:06;;;;;;;44.97;33.38;;;5.90;99.90;;;;;;5036764;28;20076;-56
2022/03/24 00:54:34;;;;;;;38.95;31.10;;;5.80;99.90;;;;;;5035428;28;20496;-56
2022/03/24 00:57:01;;;;;;;39.22;32.20;;;5.80;99.90;;;;;;5031761;28;20135;-54
2022/03/24 00:59:27;;;;;;;41.65;34.22;;;5.70;99.90;;;;;;5034782;28;20194;-56
2022/03/24 01:01:55;;;;;;;43.20;31.80;;;5.60;99.90;;;;;;5020899;28;20451;-56
2022/03/24 01:04:21;;;;;;;38.65;31.48;;;5.60;99.90;;;;;;5036305;28;20044;-56
2022/03/24 01:06:48;;;;;;;37.15;31.15;;;5.60;99.90;;;;;;5035971;28;20049;-54
2022/03/24 01:09:14;;;;;;;42.38;34.38;;;5.50;99.90;;;;;;5034689;28;20041;-56
2022/03/24 01:11:40;;;;;;;42.67;32.63;;;5.50;99.90;;;;;;5034538;28;20037;-56
2022/03/24 01:14:07;;;;;;;41.00;33.42;;;5.50;99.90;;;;;;5035851;28;20052;-56
2022/03/24 01:16:36;;;;;;;36.97;31.17;;;5.50;99.90;;;;;;5038126;28;20059;-56
2022/03/24 01:19:04;;;;;;;37.67;32.08;;;5.50;99.90;;;;;;5036838;28;20134;-54
2022/03/24 01:21:31;;;;;;;40.15;31.38;;;5.50;99.90;;;;;;5019304;28;20613;-56
2022/03/24 01:23:57;;;;;;;42.70;33.10;;;5.40;99.90;;;;;;5037613;28;20048;-57
2022/03/24 01:26:23;;;;;;;37.45;31.00;;;5.40;99.90;;;;;;5035026;28;20044;-56
2022/03/24 01:28:51;;;;;;;36.85;32.53;;;5.40;99.90;;;;;;5031859;28;20044;-56
2022/03/24 01:31:17;;;;;;;38.22;31.90;;;5.40;99.90;;;;;;5020114;28;20048;-56
2022/03/24 01:33:47;;;;;;;39.72;31.60;;;5.40;99.90;;;;;;5035257;28;20070;-56
2022/03/24 01:36:16;;;;;;;42.65;32.97;;;5.30;99.90;;;;;;5033005;28;20080;-56
2022/03/24 01:38:42;;;;;;;39.35;31.95;;;5.40;99.90;;;;;;5018283;28;20223;-56
2022/03/24 01:41:08;;;;;;;40.53;31.52;;;5.30;99.90;;;;;;5037865;28;20037;-56
2022/03/24 01:43:35;;;;;;;39.17;32.08;;;5.20;99.90;;;;;;5036926;28;20949;-56
2022/03/24 01:46:02;;;;;;;37.55;31.20;;;5.30;99.90;;;;;;5019960;28;20048;-56
2022/03/24 01:48:28;;;;;;;44.47;32.67;;;5.20;99.90;;;;;;5034708;28;20102;-57
2022/03/24 01:50:56;;;;;;;39.83;32.38;;;5.20;99.90;;;;;;5038015;28;20123;-53
2022/03/24 01:53:22;;;;;;;38.42;31.05;;;5.20;99.90;;;;;;5035890;28;20052;-54
2022/03/24 01:55:51;;;;;;;40.08;33.10;;;5.20;99.90;;;;;;5031060;28;20159;-54
2022/03/24 01:58:17;;;;;;;40.80;33.50;;;5.20;99.90;;;;;;5030006;28;20538;-54
2022/03/24 02:00:46;;;;;;;42.15;32.33;;;5.20;99.90;;;;;;5027797;28;20479;-54
2022/03/24 02:03:14;;;;;;;41.55;33.30;;;5.20;99.90;;;;;;5035609;28;20052;-54
2022/03/24 02:05:42;;;;;;;45.22;31.85;;;5.10;99.90;;;;;;5035204;28;20044;-54
2022/03/24 02:08:10;;;;;;;41.63;33.58;;;5.10;99.90;;;;;;5004978;28;20140;-52
2022/03/24 02:10:37;;;;;;;40.97;31.77;;;5.00;99.90;;;;;;5019683;28;20732;-54
2022/03/24 02:13:04;;;;;;;37.58;30.77;;;5.10;99.90;;;;;;5034764;28;20056;-53
2022/03/24 02:15:34;;;;;;;41.40;33.25;;;5.00;99.90;;;;;;5033288;28;20049;-54
2022/03/24 02:18:00;;;;;;;45.55;33.35;;;5.00;99.90;;;;;;5038941;28;20056;-53
2022/03/24 02:20:28;;;;;;;41.22;32.47;;;5.00;99.90;;;;;;5038293;28;20047;-54
2022/03/24 02:22:54;;;;;;;38.10;32.67;;;4.90;99.90;;;;;;5036727;28;20110;-54
2022/03/24 02:25:23;;;;;;;41.72;33.15;;;4.90;99.90;;;;;;5034671;28;21464;-55
2022/03/24 02:27:52;;;;;;;43.10;33.20;;;4.90;99.90;;;;;;5041662;28;20668;-54
2022/03/24 02:30:20;;;;;;;39.15;31.80;;;4.80;99.90;;;;;;5034995;28;20138;-54
2022/03/24 02:32:46;;;;;;;40.58;32.28;;;4.90;99.90;;;;;;5039801;28;20091;-53
2022/03/24 02:35:13;;;;;;;45.95;33.03;;;4.80;99.90;;;;;;5055126;28;20045;-56
2022/03/24 02:37:40;;;;;;;41.22;33.78;;;4.70;99.90;;;;;;5040659;28;20048;-57
2022/03/24 02:40:06;;;;;;;41.35;32.60;;;4.70;99.90;;;;;;5020469;28;20132;-56
2022/03/24 02:42:33;;;;;;;40.90;34.17;;;4.70;99.90;;;;;;5036080;28;20053;-56
2022/03/24 02:45:05;;;;;;;43.63;33.85;;;4.70;99.90;;;;;;5037273;28;20108;-57
2022/03/24 02:47:31;;;;;;;45.08;34.13;;;4.70;99.90;;;;;;5039719;28;20092;-56
2022/03/24 02:49:59;;;;;;;43.03;33.03;;;4.60;99.90;;;;;;5038934;28;20621;-57
2022/03/24 02:52:26;;;;;;;50.22;34.95;;;4.60;99.90;;;;;;5055278;28;20071;-56
2022/03/24 02:54:52;;;;;;;42.35;33.13;;;4.60;99.90;;;;;;5038258;28;20051;-56
2022/03/24 02:57:18;;;;;;;40.42;31.95;;;4.50;99.90;;;;;;5035208;28;20466;-56
2022/03/24 02:59:45;;;;;;;39.70;32.65;;;4.50;99.90;;;;;;5037446;28;20057;-56
2022/03/24 03:02:13;;;;;;;41.45;33.10;;;4.50;99.90;;;;;;5038724;28;20574;-57
2022/03/24 03:04:41;;;;;;;42.95;32.83;;;4.40;99.90;;;;;;5039711;28;20048;-57
2022/03/24 03:07:08;;;;;;;38.63;31.80;;;4.40;99.90;;;;;;5052360;28;20450;-57
2022/03/24 03:09:36;;;;;;;39.63;31.08;;;4.40;99.90;;;;;;5055734;28;20045;-54
2022/03/24 03:12:03;;;;;;;40.78;32.08;;;4.40;99.90;;;;;;5050888;28;20084;-57
2022/03/24 03:14:29;;;;;;;35.65;30.55;;;4.30;99.90;;;;;;5038341;28;20049;-57
2022/03/24 03:16:57;;;;;;;37.20;32.03;;;4.30;99.90;;;;;;5037427;28;20060;-57
2022/03/24 03:19:23;;;;;;;42.00;31.73;;;4.30;99.90;;;;;;5038008;28;20053;-57
2022/03/24 03:21:50;;;;;;;39.20;30.63;;;4.20;99.90;;;;;;5038347;28;20071;-57
2022/03/24 03:24:18;;;;;;;40.65;31.85;;;4.20;99.90;;;;;;5033674;28;20348;-57
2022/03/24 03:26:45;;;;;;;40.83;32.75;;;4.20;99.90;;;;;;5053032;28;20102;-57
2022/03/24 03:29:11;;;;;;;41.05;32.90;;;4.20;99.90;;;;;;5038208;28;20556;-57
2022/03/24 03:31:38;;;;;;;41.28;33.53;;;4.20;99.90;;;;;;5036126;28;20053;-57
2022/03/24 03:34:07;;;;;;;46.00;34.00;;;4.10;99.90;;;;;;5039018;28;20357;-57
2022/03/24 03:36:33;;;;;;;39.85;32.13;;;4.10;99.90;;;;;;5052272;28;20055;-57
2022/03/24 03:39:00;;;;;;;36.78;32.17;;;4.10;99.90;;;;;;5039119;28;20520;-55
2022/03/24 03:41:28;;;;;;;40.92;32.13;;;4.00;99.90;;;;;;5038165;28;20032;-54
2022/03/24 03:43:55;;;;;;;41.20;33.22;;;4.10;99.90;;;;;;5040324;28;20739;-55
2022/03/24 03:46:22;;;;;;;39.58;32.85;;;4.00;99.90;;;;;;5038916;28;20056;-55
2022/03/24 03:48:49;;;;;;;43.53;33.10;;;4.00;99.90;;;;;;5036771;28;20462;-56
2022/03/24 03:51:15;;;;;;;42.65;33.70;;;4.00;99.90;;;;;;5038309;28;20484;-56
2022/03/24 03:53:41;;;;;;;45.03;35.08;;;3.90;99.90;;;;;;5037259;28;20127;-55
2022/03/24 03:56:08;;;;;;;42.17;34.67;;;3.90;99.90;;;;;;5035292;28;20049;-55
2022/03/24 03:58:35;;;;;;;46.58;34.55;;;4.00;99.90;;;;;;5037240;28;20119;-55
2022/03/24 04:01:04;;;;;;;48.72;36.28;;;3.90;99.90;;;;;;5037801;28;20045;-55
2022/03/24 04:03:32;;;;;;;44.42;35.13;;;3.90;99.90;;;;;;5036362;28;20055;-53
2022/03/24 04:06:10;;;;;;;41.95;32.97;;;3.90;99.90;;;;;;5037921;28;20055;-54
2022/03/24 04:08:37;;;;;;;46.08;36.13;;;3.90;99.90;;;;;;5038841;28;20519;-54
2022/03/24 04:11:06;;;;;;;40.78;32.92;;;3.90;99.90;;;;;;5034785;28;20099;-55
2022/03/24 04:13:32;;;;;;;42.10;34.42;;;3.80;99.90;;;;;;5053499;28;20386;-55
2022/03/24 04:15:58;;;;;;;46.08;35.05;;;3.80;99.90;;;;;;5035454;28;20365;-55
2022/03/24 04:18:24;;;;;;;45.25;36.88;;;3.80;99.90;;;;;;5032327;28;20505;-55
2022/03/24 04:20:51;;;;;;;46.90;35.05;;;3.80;99.90;;;;;;5037501;28;20049;-55
2022/03/24 04:23:17;;;;;;;46.00;37.53;;;3.80;99.90;;;;;;5039045;28;20489;-54
2022/03/24 04:25:44;;;;;;;48.55;36.40;;;3.80;99.90;;;;;;5041796;28;20053;-54
2022/03/24 04:28:11;;;;;;;47.60;37.13;;;3.70;99.90;;;;;;5033504;28;20131;-55
2022/03/24 04:30:37;;;;;;;49.70;37.22;;;3.70;99.90;;;;;;5035972;28;20045;-52
2022/03/24 04:33:07;;;;;;;49.38;37.85;;;3.70;99.90;;;;;;5022162;28;20241;-55
2022/03/24 04:35:33;;;;;;;43.42;34.30;;;3.60;99.90;;;;;;5036666;28;20491;-57
2022/03/24 04:37:59;;;;;;;46.38;36.85;;;3.60;99.90;;;;;;5035124;28;20136;-57
2022/03/24 04:40:25;;;;;;;44.47;34.95;;;3.60;99.90;;;;;;5035941;28;20045;-57
2022/03/24 04:42:54;;;;;;;42.92;34.08;;;3.50;99.90;;;;;;5037881;28;20130;-57
2022/03/24 04:45:22;;;;;;;40.67;32.50;;;3.50;99.90;;;;;;5035324;28;20057;-57
2022/03/24 04:47:50;;;;;;;44.13;33.75;;;3.50;99.90;;;;;;5035645;28;20056;-57
2022/03/24 04:50:19;;;;;;;41.63;33.65;;;3.40;99.90;;;;;;5036973;28;20072;-57
2022/03/24 04:52:46;;;;;;;40.42;32.85;;;3.40;99.90;;;;;;5037268;28;20055;-57
2022/03/24 04:55:13;;;;;;;45.03;33.55;;;3.40;99.90;;;;;;5051606;28;20044;-57
2022/03/24 04:57:40;;;;;;;48.08;34.53;;;3.40;99.90;;;;;;5034592;28;20052;-57
2022/03/24 05:00:08;;;;;;;47.92;35.08;;;3.40;99.90;;;;;;5033974;28;20194;-57
2022/03/24 05:02:35;;;;;;;42.38;34.22;;;3.30;99.90;;;;;;5037119;28;20132;-57
2022/03/24 05:05:01;;;;;;;47.72;35.38;;;3.30;99.90;;;;;;5035624;28;20080;-57
2022/03/24 05:07:27;;;;;;;41.67;34.78;;;3.30;99.90;;;;;;5018723;28;20036;-57
2022/03/24 05:09:54;;;;;;;42.45;33.45;;;3.30;99.90;;;;;;5035457;28;20060;-56
2022/03/24 05:12:20;;;;;;;47.85;34.63;;;3.20;99.90;;;;;;5037227;28;20508;-57
2022/03/24 05:14:47;;;;;;;46.85;35.30;;;3.20;99.90;;;;;;5034049;28;20045;-54
2022/03/24 05:17:14;;;;;;;45.22;33.92;;;3.20;99.90;;;;;;5017871;28;20127;-55
2022/03/24 05:19:40;;;;;;;47.28;34.53;;;3.20;99.90;;;;;;5018341;28;20551;-57
2022/03/24 05:22:06;;;;;;;44.50;33.83;;;3.20;99.90;;;;;;5040844;28;20363;-57
2022/03/24 05:24:32;;;;;;;44.72;34.83;;;3.20;99.90;;;;;;5034071;28;20083;-57
2022/03/24 05:26:59;;;;;;;48.22;36.08;;;3.20;99.90;;;;;;5034811;28;20065;-54
2022/03/24 05:29:26;;;;;;;46.22;36.10;;;3.20;99.90;;;;;;5032918;28;20041;-55
2022/03/24 05:31:52;;;;;;;45.05;36.95;;;3.20;99.90;;;;;;5036349;28;20041;-55
2022/03/24 05:34:19;;;;;;;46.05;36.03;;;3.20;99.90;;;;;;5040418;28;20128;-55
2022/03/24 05:36:45;;;;;;;46.28;36.40;;;3.20;99.90;;;;;;5030344;28;20041;-53
2022/03/24 05:39:11;;;;;;;48.08;36.63;;;3.20;99.90;;;;;;5034619;28;20114;-55
2022/03/24 05:41:37;;;;;;;48.72;38.50;;;3.20;99.90;;;;;;5019746;28;20041;-54
2022/03/24 05:44:04;;;;;;;48.20;38.63;;;3.20;99.90;;;;;;5038194;28;20627;-55
2022/03/24 05:46:42;;;;;;;45.67;35.50;;;3.20;99.90;;;;;;5035270;28;20056;-54
2022/03/24 05:49:10;;;;;;;48.22;36.45;;;3.20;99.90;;;;;;5035017;28;20080;-56
2022/03/24 05:51:47;;;;;;;49.17;37.58;;;3.20;99.90;;;;;;5042081;28;20103;-56
2022/03/24 05:54:14;;;;;;;47.10;36.83;;;3.20;99.90;;;;;;5038232;28;20055;-56
2022/03/24 05:56:41;;;;;;;47.00;37.25;;;3.20;99.90;;;;;;5062079;28;20056;-55
2022/03/24 05:59:08;;;;;;;44.05;34.42;;;3.30;99.90;;;;;;5046501;28;20128;-55
2022/03/24 06:01:35;;;;;;;53.03;39.00;;;3.30;99.90;;;;;;5041957;28;20049;-58
2022/03/24 06:04:02;;;;;;;49.53;39.05;;;3.40;99.90;;;;;;5042793;28;20523;-57
2022/03/24 06:06:32;;;;;;;48.40;38.08;;;3.50;99.90;;;;;;5035139;28;20891;-55
2022/03/24 06:08:59;;;;;;;48.67;38.03;;;3.50;99.90;;;;;;5032450;28;20436;-56
2022/03/24 06:11:25;;;;;;;49.08;37.25;;;3.50;99.90;;;;;;5040568;28;20050;-56
2022/03/24 06:13:51;;;;;;;52.75;39.53;;;3.60;99.90;;;;;;5039554;28;20113;-56
2022/03/24 06:16:18;;;;;;;50.33;38.22;;;3.60;99.90;;;;;;5038941;28;20072;-56
2022/03/24 06:18:45;;;;;;;55.53;40.80;;;3.60;99.90;;;;;;5051470;28;20132;-55
2022/03/24 06:21:12;;;;;;;50.53;39.38;;;3.70;99.90;;;;;;5043765;28;20120;-56
2022/03/24 06:23:38;;;;;;;54.70;39.40;;;3.80;99.90;;;;;;5035405;28;20049;-55
2022/03/24 06:26:05;;;;;;;47.72;36.08;;;3.80;99.90;;;;;;5043735;28;20075;-56
2022/03/24 06:28:31;;;;;;;54.17;37.85;;;3.90;99.90;;;;;;5042724;28;20138;-55
2022/03/24 06:30:57;;;;;;;46.85;37.17;;;4.00;99.90;;;;;;5043136;28;20041;-54
2022/03/24 06:33:24;;;;;;;45.00;38.35;;;4.10;99.90;;;;;;5009183;28;20179;-56
2022/03/24 06:35:50;;;;;;;50.00;41.03;;;4.20;99.90;;;;;;5030783;28;20391;-55
2022/03/24 06:38:18;;;;;;;53.85;40.25;;;4.30;99.90;;;;;;5045665;28;20377;-56
2022/03/24 06:40:44;;;;;;;53.40;42.17;;;4.30;99.90;;;;;;5044933;28;20121;-56
2022/03/24 06:43:10;;;;;;;55.35;41.88;;;4.50;99.90;;;;;;5039009;28;20197;-54
2022/03/24 06:45:37;;;;;;;52.63;41.10;;;4.60;99.90;;;;;;5023727;28;20403;-56
2022/03/24 06:48:07;;;;;;;50.97;39.92;;;4.70;99.90;;;;;;5037539;28;20053;-55
2022/03/24 06:50:35;;;;;;;54.13;42.25;;;4.80;99.90;;;;;;5038517;28;20124;-55
2022/03/24 06:53:03;;;;;;;54.83;43.15;;;5.00;99.90;;;;;;5037685;28;20056;-56
2022/03/24 06:55:30;;;;;;;56.88;43.35;;;5.10;99.90;;;;;;5038881;28;20064;-57
2022/03/24 06:57:56;;;;;;;54.42;43.75;;;5.30;99.90;;;;;;5034161;28;20072;-56
2022/03/24 07:00:23;;;;;;;55.83;43.60;;;5.50;99.90;;;;;;5039788;28;20106;-54
2022/03/24 07:02:49;;;;;;;53.60;44.25;;;5.80;99.90;;;;;;5037956;28;20060;-55
2022/03/24 07:05:15;;;;;;;56.30;46.42;;;6.10;99.90;;;;;;5037201;28;20045;-54
2022/03/24 07:07:43;;;;;;;63.25;51.78;;;6.50;99.90;;;;;;5041627;28;20479;-55
2022/03/24 07:10:10;;;;;;;60.22;52.70;;;6.90;99.90;;;;;;5036559;28;20045;-55
2022/03/24 07:12:37;;;;;;;59.80;50.60;;;7.30;99.90;;;;;;5053423;28;20423;-54
2022/03/24 07:15:07;;;;;;;52.47;46.58;;;7.70;99.90;;;;;;5035814;28;20617;-56
2022/03/24 07:17:36;;;;;;;51.72;45.88;;;8.20;99.90;;;;;;5036762;28;20110;-55
2022/03/24 07:20:04;;;;;;;56.10;48.80;;;8.50;99.90;;;;;;5037504;28;20045;-55
2022/03/24 07:22:32;;;;;;;57.33;48.17;;;9.00;99.90;;;;;;5037557;28;20505;-55
2022/03/24 07:24:59;;;;;;;56.58;47.65;;;9.30;99.90;;;;;;5037502;28;20425;-59
2022/03/24 07:27:25;;;;;;;55.22;47.47;;;9.70;99.90;;;;;;5022565;28;20049;-55
2022/03/24 07:29:51;;;;;;;51.10;45.65;;;10.00;99.90;;;;;;5036726;28;20044;-55
2022/03/24 07:32:18;;;;;;;53.20;47.40;;;10.50;99.90;;;;;;5035365;28;20170;-55
2022/03/24 07:34:45;;;;;;;53.10;47.70;;;10.80;99.90;;;;;;5037011;28;20052;-55
2022/03/24 07:37:11;;;;;;;53.63;47.83;;;11.10;99.90;;;;;;5041648;28;20132;-57
2022/03/24 07:39:38;;;;;;;48.38;43.38;;;11.70;99.90;;;;;;5038276;28;22021;-56
2022/03/24 07:42:05;;;;;;;48.92;43.95;;;12.10;99.90;;;;;;5039521;28;20135;-57
2022/03/24 07:44:32;;;;;;;48.60;43.45;;;12.40;99.90;;;;;;5040559;28;20139;-57
2022/03/24 07:46:58;;;;;;;50.25;44.85;;;12.60;99.90;;;;;;5049806;28;20053;-58
2022/03/24 07:49:24;;;;;;;52.22;45.60;;;13.00;99.90;;;;;;5035612;28;20083;-57
2022/03/24 07:51:50;;;;;;;49.05;43.95;;;13.40;99.90;;;;;;5039867;28;20056;-57
2022/03/24 07:54:50;;;;;;;49.95;44.08;;;13.50;99.90;;;;;;5049422;28;20049;-57
2022/03/24 07:57:17;;;;;;;46.50;41.70;;;13.90;99.90;;;;;;5048391;28;20048;-57
2022/03/24 07:59:43;;;;;;;45.35;40.63;;;14.10;99.90;;;;;;5038436;28;20412;-57
2022/03/24 08:02:09;;;;;;;45.78;40.85;;;14.40;99.90;;;;;;5021671;28;20492;-57
2022/03/24 08:04:35;;;;;;;45.00;40.20;;;14.60;99.90;;;;;;5043051;28;20427;-55
2022/03/24 08:07:02;;;;;;;45.38;40.70;;;15.10;99.90;;;;;;5022723;28;20051;-55
2022/03/24 08:09:32;;;;;;;45.75;41.05;;;15.00;99.90;;;;;;5050253;28;20041;-55
2022/03/24 08:11:59;;;;;;;43.10;38.60;;;15.20;99.90;;;;;;5036874;28;20466;-56
2022/03/24 08:14:26;;;;;;;41.50;37.28;;;15.30;98.30;;;;;;5036209;28;20045;-55
2022/03/24 08:16:52;;;;;;;44.00;39.42;;;15.70;76.20;;;;;;5037402;28;20036;-55
2022/03/24 08:19:18;;;;;;;40.97;36.75;;;15.60;72.60;;;;;;5037471;28;20040;-57
2022/03/24 08:21:45;;;;;;;39.08;35.08;;;15.90;66.50;;;;;;5036852;28;20055;-59
2022/03/24 08:24:11;;;;;;;39.42;35.42;;;16.40;63.50;;;;;;5036405;28;20056;-56
2022/03/24 08:26:38;;;;;;;38.55;34.33;;;16.80;61.80;;;;;;5020477;28;20495;-56
2022/03/24 08:29:04;;;;;;;37.00;33.28;;;16.90;57.90;;;;;;5050594;28;20069;-55
2022/03/24 08:31:31;;;;;;;39.97;35.70;;;17.40;56.60;;;;;;5037039;28;20052;-55
2022/03/24 08:33:57;;;;;;;36.92;33.08;;;17.50;54.70;;;;;;5035504;28;20053;-55
2022/03/24 08:36:24;;;;;;;36.78;33.00;;;17.70;53.70;;;;;;5031721;28;20464;-55
2022/03/24 08:38:50;;;;;;;40.00;33.03;;;18.20;52.60;;;;;;5044853;28;20040;-55
2022/03/24 08:41:16;;;;;;;35.28;31.45;;;18.20;51.20;;;;;;5036309;28;20471;-55
2022/03/24 08:43:42;;;;;;;37.40;33.67;;;18.60;50.20;;;;;;5031675;28;20060;-56
2022/03/24 08:46:09;;;;;;;35.35;31.70;;;19.00;50.50;;;;;;5025455;28;20095;-56
2022/03/24 08:48:35;;;;;;;34.75;31.63;;;19.10;49.30;;;;;;5002058;28;20437;-55
2022/03/24 08:51:03;;;;;;;37.15;33.28;;;19.20;48.60;;;;;;5022389;28;20468;-55
2022/03/24 08:53:29;;;;;;;37.40;33.45;;;19.10;47.20;;;;;;5024444;28;20057;-55
2022/03/24 08:55:55;;;;;;;35.58;31.77;;;19.30;47.80;;;;;;5044247;28;20492;-56
2022/03/24 08:58:24;;;;;;;35.40;31.00;;;19.50;47.90;;;;;;5038804;28;20044;-56
2022/03/24 09:00:51;;;;;;;36.33;32.42;;;19.70;46.80;;;;;;5038297;28;20049;-55
2022/03/24 09:03:17;;;;;;;37.08;33.28;;;19.80;46.10;;;;;;5033670;28;20045;-55
2022/03/24 09:05:43;;;;;;;38.05;34.25;;;20.10;45.80;;;;;;5026542;28;20282;-55
2022/03/24 09:08:09;;;;;;;37.58;33.80;;;20.40;45.60;;;;;;5038435;28;20055;-55
2022/03/24 09:10:36;;;;;;;42.47;35.38;;;20.80;45.10;;;;;;5036566;28;20091;-55
2022/03/24 09:13:02;;;;;;;40.55;36.15;;;21.00;45.40;;;;;;5043541;28;20192;-55
2022/03/24 09:15:29;;;;;;;38.40;34.30;;;20.90;45.30;;;;;;5033758;28;20045;-56
2022/03/24 09:17:55;;;;;;;36.17;32.47;;;20.90;43.60;;;;;;5038018;28;20041;-56
2022/03/24 09:20:23;;;;;;;39.10;34.83;;;21.40;43.30;;;;;;5040926;28;20044;-55
2022/03/24 09:22:49;;;;;;;38.13;34.45;;;21.30;43.10;;;;;;5042697;28;20478;-56
2022/03/24 09:25:19;;;;;;;38.53;34.85;;;21.70;43.20;;;;;;5038803;28;20051;-55
2022/03/24 09:27:45;;;;;;;36.50;32.53;;;22.20;42.50;;;;;;5033176;28;20471;-56
2022/03/24 09:30:14;;;;;;;38.97;34.70;;;21.80;41.60;;;;;;5040879;28;20041;-56
2022/03/24 09:32:41;;;;;;;39.15;35.13;;;21.80;40.90;;;;;;5041856;28;20416;-55
2022/03/24 09:35:08;;;;;;;39.55;35.53;;;22.40;41.00;;;;;;5023492;28;20495;-55
2022/03/24 09:37:34;;;;;;;37.80;34.15;;;22.40;40.80;;;;;;5024571;28;20052;-55
2022/03/24 09:40:02;;;;;;;37.08;33.22;;;22.80;41.00;;;;;;5026581;28;20045;-55
2022/03/24 09:42:29;;;;;;;36.45;33.13;;;23.00;40.80;;;;;;5022818;28;20050;-55
2022/03/24 09:45:03;;;;;;;35.92;32.58;;;23.10;40.00;;;;;;5022981;28;20073;-55
2022/03/24 09:47:31;;;;;;;36.08;32.60;;;23.20;39.30;;;;;;5023985;28;20061;-56
2022/03/24 09:49:57;;;;;;;36.28;32.67;;;23.30;39.30;;;;;;5043472;28;20057;-55
2022/03/24 09:52:25;;;;;;;32.63;28.67;;;23.70;38.80;;;;;;5010711;28;20128;-55
2022/03/24 09:54:52;;;;;;;35.15;31.42;;;24.00;37.20;;;;;;5021388;28;20057;-55
2022/03/24 09:57:20;;;;;;;31.85;28.60;;;23.80;35.70;;;;;;5024487;28;20096;-56
2022/03/24 09:59:46;;;;;;;32.17;28.77;;;24.10;34.80;;;;;;5025974;28;20055;-55
2022/03/24 10:02:13;;;;;;;30.45;27.48;;;24.30;35.40;;;;;;5042877;28;20469;-56
2022/03/24 10:04:53;;;;;;;31.25;28.35;;;24.10;34.90;;;;;;5032903;28;20376;-55
2022/03/24 10:07:23;;;;;;;31.35;28.15;;;24.30;34.20;;;;;;5040391;28;20049;-55
2022/03/24 10:09:51;;;;;;;33.47;30.30;;;24.40;35.00;;;;;;5023851;28;20046;-55
2022/03/24 10:12:24;;;;;;;32.40;29.08;;;24.60;34.70;;;;;;5022674;28;20137;-57
2022/03/24 10:15:03;;;;;;;31.98;28.65;;;24.90;33.90;;;;;;5024741;28;20057;-57
2022/03/24 10:17:31;;;;;;;31.92;28.73;;;24.90;32.50;;;;;;5040979;28;20156;-57
2022/03/24 10:20:04;;;;;;;31.45;28.17;;;25.00;33.70;;;;;;5008788;28;20551;-57
2022/03/24 10:22:32;;;;;;;30.02;26.95;;;25.20;32.10;;;;;;5037236;28;20515;-57
2022/03/24 10:24:59;;;;;;;30.60;27.38;;;24.80;32.60;;;;;;5037710;28;20585;-57
2022/03/24 10:27:29;;;;;;;30.75;27.65;;;25.50;31.70;;;;;;5035823;28;20190;-57
2022/03/24 10:29:57;;;;;;;33.22;30.08;;;26.00;32.30;;;;;;5041025;28;20057;-57
2022/03/24 10:32:31;;;;;;;31.50;28.27;;;26.10;32.60;;;;;;5039161;28;20515;-57
2022/03/24 10:35:07;;;;;;;30.02;26.98;;;26.00;31.30;;;;;;5028891;28;20049;-57
2022/03/24 10:37:33;;;;;;;28.40;25.52;;;26.40;31.30;;;;;;5059563;28;20049;-57
2022/03/24 10:40:18;;;;;;;31.67;28.58;;;26.80;31.70;;;;;;5026217;28;20068;-57
2022/03/24 10:42:45;;;;;;;28.77;25.85;;;27.00;31.20;;;;;;5043513;28;20084;-57
2022/03/24 10:45:20;;;;;;;30.73;27.70;;;27.00;30.90;;;;;;5025715;28;20586;-57
2022/03/24 10:47:54;;;;;;;35.65;32.28;;;27.00;29.90;;;;;;5050452;28;20135;-57
2022/03/24 10:50:28;;;;;;;37.45;33.80;;;27.00;31.50;;;;;;5039835;28;20452;-58
2022/03/24 10:53:06;;;;;;;26.73;24.13;;;27.30;30.90;;;;;;5040950;28;20148;-59
2022/03/24 10:55:35;;;;;;;25.67;23.17;;;27.30;30.10;;;;;;5056912;28;20088;-57
2022/03/24 10:58:07;;;;;;;48.35;43.75;;;27.50;29.90;;;;;;5055328;28;20056;-58
2022/03/24 11:00:33;;;;;;;27.60;24.70;;;27.70;29.50;;;;;;5041573;28;20124;-58
2022/03/24 11:03:00;;;;;;;27.85;25.20;;;27.70;29.40;;;;;;5055160;28;20473;-58
2022/03/24 11:05:26;;;;;;;31.15;28.08;;;27.30;29.50;;;;;;5029070;28;20116;-59
2022/03/24 11:07:54;;;;;;;32.47;29.05;;;27.60;29.70;;;;;;5047978;28;20435;-59
2022/03/24 11:10:22;;;;;;;31.67;28.00;;;27.60;29.50;;;;;;5036986;28;20049;-59
2022/03/24 11:12:51;;;;;;;25.02;22.27;;;27.90;29.00;;;;;;5044592;28;20049;-59
2022/03/24 11:15:19;;;;;;;26.48;21.45;;;27.60;28.50;;;;;;5043072;28;20556;-59
2022/03/24 11:17:47;;;;;;;25.98;22.23;;;27.80;28.40;;;;;;5039475;28;20067;-60
2022/03/24 11:20:29;;;;;;;23.15;20.92;;;27.90;28.50;;;;;;5033868;28;20140;-59
2022/03/24 11:22:57;;;;;;;25.58;18.20;;;27.70;28.50;;;;;;5054851;28;20436;-59
2022/03/24 11:25:25;;;;;;;21.85;19.75;;;27.90;28.60;;;;;;5033681;28;20068;-60
2022/03/24 11:27:53;;;;;;;25.88;23.23;;;28.00;28.20;;;;;;5030448;28;20413;-60
2022/03/24 11:30:22;;;;;;;32.10;28.92;;;28.10;28.20;;;;;;5041315;28;20777;-58
2022/03/24 11:32:56;;;;;;;27.60;24.73;;;27.90;28.50;;;;;;5045406;28;20045;-58
2022/03/24 11:35:24;;;;;;;26.23;23.02;;;27.60;28.50;;;;;;5045403;28;20114;-58
2022/03/24 11:37:50;;;;;;;25.65;21.98;;;27.90;28.80;;;;;;5047139;28;20502;-58
2022/03/24 11:40:25;;;;;;;23.83;21.27;;;27.50;28.50;;;;;;5046828;28;20080;-58
2022/03/24 11:43:19;;;;;;;26.85;22.58;;;27.70;29.20;;;;;;5045249;28;20084;-58
2022/03/24 11:45:48;;;;;;;28.30;25.48;;;27.40;28.30;;;;;;5042243;28;20048;-56
2022/03/24 11:48:16;;;;;;;25.38;21.65;;;27.50;28.70;;;;;;5039606;28;20544;-55
2022/03/24 11:50:55;;;;;;;26.92;24.02;;;28.20;28.50;;;;;;5023533;28;20107;-56
2022/03/24 11:53:30;;;;;;;25.30;22.42;;;27.80;27.00;;;;;;5041947;28;20096;-56
2022/03/24 11:56:00;;;;;;;26.58;23.88;;;27.50;27.90;;;;;;5041724;28;20431;-56
2022/03/24 11:58:36;;;;;;;28.60;22.77;;;27.80;29.10;;;;;;5032918;28;20051;-55
2022/03/24 12:01:17;;;;;;;24.70;22.08;;;27.80;28.60;;;;;;5038511;28;20049;-55
2022/03/24 12:03:48;;;;;;;30.13;20.77;;;28.10;28.70;;;;;;5040558;28;20052;-55
2022/03/24 12:06:16;;;;;;;23.63;21.08;;;28.10;28.80;;;;;;5042138;28;20272;-54
2022/03/24 12:09:00;;;;;;;23.70;21.20;;;28.20;28.70;;;;;;5039933;28;20047;-54
2022/03/24 12:11:32;;;;;;;22.85;19.42;;;28.40;29.00;;;;;;5038321;28;20045;-55
2022/03/24 12:13:59;;;;;;;21.55;19.23;;;28.60;28.40;;;;;;5041362;28;20056;-55
2022/03/24 12:16:27;;;;;;;21.38;18.67;;;28.40;28.70;;;;;;5042879;28;20052;-55
2022/03/24 12:18:54;;;;;;;23.63;20.23;;;28.30;28.60;;;;;;5042908;28;20133;-53
2022/03/24 12:21:26;;;;;;;22.30;19.58;;;28.30;28.60;;;;;;5021278;28;20052;-55
2022/03/24 12:24:18;;;;;;;24.63;22.13;;;28.30;28.60;;;;;;5056443;28;20049;-55
2022/03/24 12:26:55;;;;;;;27.02;21.35;;;28.60;28.70;;;;;;5029742;28;20050;-55
2022/03/24 12:29:26;;;;;;;21.90;18.70;;;28.70;28.50;;;;;;5050832;28;20136;-56
2022/03/24 12:32:10;;;;;;;24.83;17.40;;;28.80;28.50;;;;;;5031711;28;20132;-57
2022/03/24 12:34:39;;;;;;;23.08;17.92;;;28.40;27.00;;;;;;5005078;28;20568;-57
2022/03/24 12:37:27;;;;;;;24.55;19.65;;;27.90;27.50;;;;;;5026996;28;20052;-58